Flight Track Log - Related Links

Times and Time Zones

All times are in EDT time to prevent confusion due to time zone crossing. See the RPA4901 flight status page for this flight to view local times or setup timezone preferences in your user account.

Time Position Orientation Groundspeed Altitude Reporting Facility
EDT Latitude Longitude Course Direction KTS MPH feet Rate Location/Type
Sat 01:39:11 AM 39.8833 -104.5500 343° North 216 249 7,700  Level Denver TRACON
Sat 01:40:11 AM 39.9167 -104.4833 57° Northeast 241 277 10,000 2,200 Climbing Denver TRACON
Sat 01:41:11 AM 39.9667 -104.4833 360° North 236 272 12,100 2,103 Climbing Denver TRACON
Sat 01:43:05 AM 40.0794 -104.5714 329° Northwest 244 281 16,100 1,989 Climbing Denver Center
Sat 01:44:00 AM 40.2704 -104.8581 343° North  Level FlightAware Approximate
Sat 01:44:06 AM 40.1211 -104.6392 309° West 240 276 17,900  Level Denver Center
Sat 01:45:06 AM 40.1639 -104.7078 309° West 245 282 19,100 1,150 Climbing Denver Center
Sat 01:46:06 AM 40.2072 -104.7786 309° West 250 288 20,200 1,091 Climbing Denver Center
Sat 01:47:07 AM 40.2594 -104.8606 310° West 271 312 21,300 1,041 Climbing Denver Center
Sat 01:48:07 AM 40.3072 -104.9406 308° West 280 322 22,300 1,050 Climbing Denver Center
Sat 01:49:07 AM 40.3578 -105.0189 310° West 281 323 23,400 843 Climbing Denver Center
Sat 01:50:08 AM 40.4081 -105.1006 309° West 287 330 24,000 298 Climbing Denver Center
Sat 01:51:08 AM 40.4639 -105.1869 310° West 309 356 24,000  Level Denver Center
Sat 01:52:08 AM 40.5161 -105.2717 309° West 320 368 24,000  Level Denver Center
Sat 01:53:09 AM 40.5769 -105.3686 310° West 337 388 24,000  Level Denver Center
Sat 01:54:09 AM 40.6375 -105.4675 309° West 345 397 24,000  Level Denver Center
Sat 01:55:10 AM 40.6967 -105.5653 309° West 339 390 24,000  Level Denver Center
Sat 01:56:10 AM 40.7572 -105.6622 310° West 340 391 24,000  Level Denver Center
Sat 01:57:10 AM 40.8172 -105.7606 309° West 340 391 24,000  Level Denver Center
Sat 01:58:11 AM 40.8778 -105.8592 309° West 343 395 24,000  Level Denver Center
Sat 01:59:11 AM 40.9369 -105.9586 308° West 342 394 24,000  Level Denver Center
Sat 02:00:11 AM 40.9975 -106.0567 309° West 341 392 24,000  Level Denver Center
Sat 02:01:12 AM 41.0597 -106.1589 309° West 343 395 24,000  Level Denver Center
Sat 02:02:12 AM 41.1167 -106.2519 309° West 343 395 24,000  Level Denver Center
Sat 02:03:13 AM 41.1822 -106.3619 308° West 342 394 24,000  Level Denver Center
Sat 02:04:13 AM 41.2386 -106.4561 309° West 343 395 24,000  Level Denver Center
Sat 02:05:13 AM 41.2950 -106.5508 308° West 343 395 24,000  Level Denver Center
Sat 02:06:14 AM 41.3600 -106.6611 308° West 341 392 24,000  Level Denver Center
Sat 02:07:14 AM 41.4153 -106.7547 308° West 337 388 24,000  Level Denver Center
Sat 02:08:14 AM 41.4719 -106.8489 309° West 341 392 24,000  Level Denver Center
Sat 02:09:15 AM 41.5269 -106.9433 308° West 339 390 24,000  Level Denver Center
Sat 02:10:15 AM 41.5936 -107.0556 308° West 343 395 24,000  Level Denver Center
Sat 02:11:15 AM 41.6497 -107.1517 308° West 344 396 24,000  Level Denver Center
Sat 02:12:28 AM 41.7247 -107.2803 308° West 345 397 24,000  Level Denver Center
Sat 02:13:28 AM 41.7811 -107.3772 308° West 346 398 24,000  Level Denver Center
Sat 02:14:29 AM 41.8381 -107.4753 308° West 348 400 24,000  Level Denver Center
Sat 02:15:29 AM 41.9031 -107.5881 308° West 345 397 24,000  Level Denver Center
Sat 02:16:24 AM 41.9478 -107.6694 306° West 343 395 24,000  Level Salt Lake Center
Sat 02:17:24 AM 42.0144 -107.7836 308° West 346 398 24,000  Level Salt Lake Center
Sat 02:18:25 AM 42.0694 -107.8800 308° West 343 395 24,000  Level Salt Lake Center
Sat 02:19:25 AM 42.1247 -107.9769 308° West 345 397 24,000  Level Salt Lake Center
Sat 02:20:26 AM 42.1892 -108.0900 308° West 342 394 24,000  Level Salt Lake Center
Sat 02:21:26 AM 42.2442 -108.1883 307° West 343 395 24,000  Level Salt Lake Center
Sat 02:22:26 AM 42.2994 -108.2861 307° West 345 397 24,000  Level Salt Lake Center
Sat 02:23:27 AM 42.3633 -108.3994 307° West 343 395 24,000  Level Salt Lake Center
Sat 02:24:27 AM 42.4186 -108.5003 307° West 346 398 24,000  Level Salt Lake Center
Sat 02:25:28 AM 42.4725 -108.5969 307° West 340 391 24,000  Level Salt Lake Center
Sat 02:26:28 AM 42.5347 -108.7097 307° West 338 389 24,000  Level Salt Lake Center
Sat 02:27:29 AM 42.5883 -108.8061 307° West 336 387 24,000  Level Salt Lake Center
Sat 02:28:29 AM 42.6358 -108.9072 303° West 334 384 24,000  Level Salt Lake Center
Sat 02:29:30 AM 42.6828 -109.0106 302° West 336 387 24,000  Level Salt Lake Center
Sat 02:30:30 AM 42.7367 -109.1322 301° West 336 387 24,000  Level Salt Lake Center
Sat 02:31:31 AM 42.7822 -109.2347 301° West 333 383 24,000  Level Salt Lake Center
Sat 02:32:31 AM 42.8297 -109.3394 302° West 339 390 24,000  Level Salt Lake Center
Sat 02:33:32 AM 42.8842 -109.4606 302° West 337 388 24,000  Level Salt Lake Center
Sat 02:34:32 AM 42.9303 -109.5644 301° West 335 386 24,000  Level Salt Lake Center
Sat 02:35:33 AM 42.9828 -109.6819 301° West 338 389 24,000  Level Salt Lake Center
Sat 02:36:33 AM 43.0289 -109.7878 301° West 338 389 24,000  Level Salt Lake Center
Sat 02:37:34 AM 43.0808 -109.9044 301° West 336 387 24,000  Level Salt Lake Center
Sat 02:38:34 AM 43.1272 -110.0097 301° West 336 387 24,000 -347 Level Salt Lake Center
Sat 02:39:35 AM 43.1703 -110.1114 300° West 324 373 23,300 -1,140 Descending Salt Lake Center
Sat 02:40:35 AM 43.2139 -110.2103 301° West 318 366 21,700 -1,636 Descending Salt Lake Center
Sat 02:41:36 AM 43.2583 -110.3092 302° West 312 359 20,000 -1,686 Descending Salt Lake Center
Sat 02:42:36 AM 43.3025 -110.4114 301° West 312 359 18,300 -1,537 Descending Salt Lake Center
Sat 02:43:37 AM 43.3436 -110.5081 300° West 294 338 16,900 -1,537 Descending Salt Lake Center
Sat 02:44:37 AM 43.3686 -110.6044 290° West 278 320 15,200 -1,550 Descending Salt Lake Center
Sat 02:45:37 AM 43.3556 -110.7014 260° West 257 296 13,800 -1,289 Descending Salt Lake Center
Sat 02:46:38 AM 43.3564 -110.7889 271° West 232 267 12,600 -1,289 Descending Salt Lake Center
Sat 02:47:38 AM 43.3886 -110.8572 303° West 228 262 11,200 -1,190 Descending Salt Lake Center
Sat 02:48:39 AM 43.4372 -110.8325 20° North 198 228 10,200 -992 Descending Salt Lake Center
Sat 02:49:39 AM 43.4814 -110.8056 24° Northeast 185 213 9,200 -942 Descending Salt Lake Center
Sat 02:50:40 AM 43.5192 -110.7869 20° North 164 189 8,300 -843 Descending Salt Lake Center
Sat 02:51:40 AM 43.5536 -110.7672 23° Northeast 147 169 7,500 -793 Descending Salt Lake Center
Sat 02:52:41 AM 43.5878 -110.7467 24° Northeast 139 160 6,700 -787 Descending Salt Lake Center

Login

Don't have an account? Register now (free) for customized features, flight alerts, and more!